Terminal Aerodrome Forecast
Issued by NWS Jacksonville, FL

Home | Current Version | Previous Version | Text Only | Print | Product List | Glossary On
Versions: 1 2 3 4 5 6 7 8 9 10 11 12 13 14 15 16 17 18 19 20 21 22 23 24 25 26 27 28 29 30
000
FTUS42 KJAX 242332
TAFJAX
TAF
KJAX 242332Z 2500/2524 19008KT P6SM BKN060 OVC120
     FM251200 19007KT P6SM SHRA OVC060 WS020/22038KT
     FM251600 20010KT P6SM SHRA SCT020 BKN030 OVC060
     FM252200 21009KT 4SM SHRA BR BKN015 OVC030=

USA.gov is the U.S. government's official web portal to all federal, state and local government web resources and services.